Temp: 4.8°C   Baro: 1017.2mb
  Wind: 0.0mph   Dir: NNW (342°)
  Rain: 0.0mm (0.0mm/hr)
  Solar: 0W/m2  Hum: 83%

Historic data

Bath Spa Weather Station Historical Data
Daily Summary for June 11, 2021 Units:  Metric    English   Both
Daily Weekly Monthly Yearly Custom
  High: Low: Average:
Temperature: 14.4 °C 8.6 °C 11.7 °C
Dew Point: 12.2 °C 7.4 °C 10.3 °C
Humidity: 95% 76% 88%
Wind Speed: 10.9km/h 0km/h 2.9km/h
Wind Gust: 19.3km/h - -
Wind- - SW
Pressure: 1023.9 hPa 1017.5 hPa -
Precipitation: 0.25 mm    
Historical Graphs
 
 
Tabular Data for June 11, 2021
Time Temperature Dew Point Pressure Wind Wind Speed Wind Gust Humidity Rainfall Rate (Hourly) solar
00:04 11.9 °C 11.3 °C 1023.6 hPa Calm     93% 0 mm 0 W/m2
00:09 11.9 °C 11.3 °C 1023.2 hPa Calm     93% 0 mm 0 W/m2
00:14 11.9 °C 11.3 °C 1023.2 hPa Calm   1.6 km/h 93% 0 mm 0 W/m2
00:19 11.9 °C 11.3 °C 1023.2 hPa Calm     93% 0 mm 0 W/m2
00:23 11.9 °C 11.3 °C 1023.2 hPa Calm     93% 0 mm 0 W/m2
00:29 11.9 °C 11.3 °C 1023.2 hPa Calm     93% 0 mm 0 W/m2
00:34 11.9 °C 11.3 °C 1023.2 hPa Calm     93% 0 mm 0 W/m2
00:39 11.9 °C 11.3 °C 1023.2 hPa Calm     93% 0 mm 0 W/m2
00:44 11.9 °C 11.3 °C 1023.2 hPa Calm     93% 0 mm 0 W/m2
00:49 11.9 °C 11.3 °C 1023.2 hPa Calm     93% 0 mm 0 W/m2
00:54 11.9 °C 11.3 °C 1023.2 hPa Calm     93% 0 mm 0 W/m2
00:59 11.9 °C 11.3 °C 1023.2 hPa Calm     93% 0 mm 0 W/m2
01:04 11.9 °C 11.3 °C 1023.2 hPa Calm     93% 0 mm 0 W/m2
01:09 11.9 °C 11.3 °C 1023.2 hPa Calm     93% 0 mm 0 W/m2
01:14 11.9 °C 11.3 °C 1023.2 hPa Calm     93% 0 mm 0 W/m2
01:19 11.9 °C 11.3 °C 1023.2 hPa Calm     93% 0 mm 0 W/m2
01:24 11.9 °C 11.3 °C 1023.2 hPa Calm     93% 0 mm 0 W/m2
01:29 11.9 °C 11.3 °C 1023.2 hPa Calm     93% 0 mm 0 W/m2
01:34 11.9 °C 11.3 °C 1023.2 hPa Calm     93% 0 mm 0 W/m2
01:39 11.9 °C 11.3 °C 1023.2 hPa Calm     93% 0 mm 0 W/m2
01:44 11.9 °C 11.3 °C 1023.2 hPa Calm     93% 0 mm 0 W/m2
01:49 11.9 °C 11.4 °C 1023.2 hPa Calm     93.6% 0 mm 0 W/m2
01:54 11.9 °C 11.4 °C 1023.2 hPa Calm     93.8% 0 mm 0 W/m2
01:59 11.9 °C 11.4 °C 1023.2 hPa WSW 0.3 km/h 1.6 km/h 93.8% 0 mm 0 W/m2
02:04 11.9 °C 11.5 °C 1023.2 hPa Calm     94% 0 mm 0 W/m2
02:09 11.9 °C 11.5 °C 1023.2 hPa WSW 0.6 km/h 1.6 km/h 94% 0 mm 0 W/m2
02:14 11.9 °C 11.5 °C 1023.2 hPa Calm   3.2 km/h 94% 0 mm 0 W/m2
02:19 11.9 °C 11.5 °C 1023.2 hPa WSW 0.3 km/h 3.2 km/h 94% 0 mm 0 W/m2
02:24 11.9 °C 11.5 °C 1023.2 hPa Calm     94% 0 mm 0 W/m2
02:29 11.9 °C 11.5 °C 1023.2 hPa Calm   3.2 km/h 94% 0 mm 0 W/m2
02:34 11.9 °C 11.5 °C 1023.2 hPa WSW 0.3 km/h 1.6 km/h 94% 0 mm 0 W/m2
02:39 11.8 °C 11.4 °C 1022.9 hPa WSW 1 km/h 6.4 km/h 94% 0 mm 0 W/m2
02:44 11.8 °C 11.4 °C 1022.9 hPa WSW 0.3 km/h 3.2 km/h 94% 0 mm 0 W/m2
02:49 11.8 °C 11.4 °C 1022.9 hPa WSW 0.3 km/h 3.2 km/h 94% 0 mm 0 W/m2
02:54 11.8 °C 11.4 °C 1022.9 hPa Calm   3.2 km/h 94% 0 mm 0 W/m2
02:59 11.8 °C 11.4 °C 1022.9 hPa WSW 0.6 km/h 3.2 km/h 94% 0 mm 0 W/m2
03:04 11.8 °C 11.4 °C 1022.9 hPa WSW 0.3 km/h 1.6 km/h 94% 0 mm 0 W/m2
03:09 11.8 °C 11.3 °C 1022.9 hPa WSW 0.6 km/h 3.2 km/h 94% 0 mm 0 W/m2
03:14 11.7 °C 11.3 °C 1022.9 hPa WSW 0.3 km/h 4.8 km/h 94% 0 mm 0 W/m2
03:19 11.7 °C 11.3 °C 1022.9 hPa Calm     94% 0 mm 0 W/m2
03:24 11.8 °C 11.3 °C 1022.9 hPa Calm   1.6 km/h 94% 0 mm 0 W/m2
03:29 11.8 °C 11.4 °C 1022.9 hPa WSW 0.3 km/h 1.6 km/h 94% 0.25 mm 0 W/m2
03:34 11.7 °C 11.3 °C 1022.9 hPa WSW 0.8 km/h 3.2 km/h 94% 0.25 mm 0 W/m2
03:39 11.7 °C 11.3 °C 1022.9 hPa WSW 0.3 km/h 3.2 km/h 94% 0.25 mm 0 W/m2
03:44 11.7 °C 11.3 °C 1022.9 hPa WSW 0.6 km/h 3.2 km/h 94% 0.25 mm 0 W/m2
03:49 11.7 °C 11.3 °C 1022.9 hPa Calm   1.6 km/h 94% 0.25 mm 0 W/m2
03:54 11.7 °C 11.3 °C 1022.9 hPa Calm     94% 0.25 mm 0 W/m2
03:59 11.7 °C 11.3 °C 1022.9 hPa Calm   1.6 km/h 94% 0.25 mm 0 W/m2
04:04 11.7 °C 11.3 °C 1022.9 hPa Calm     94% 0.25 mm 0 W/m2
04:09 11.7 °C 11.3 °C 1022.9 hPa Calm     94% 0.25 mm 0 W/m2
04:14 11.7 °C 11.3 °C 1022.9 hPa Calm     94% 0.25 mm 0 W/m2
04:19 11.7 °C 11.3 °C 1022.9 hPa Calm     94% 0.25 mm 0 W/m2
04:24 11.7 °C 11.3 °C 1022.9 hPa Calm     94% 0.25 mm 0 W/m2
04:29 11.7 °C 11.3 °C 1022.9 hPa Calm     94% 0.25 mm 0 W/m2
04:34 11.7 °C 11.3 °C 1022.9 hPa Calm   4.8 km/h 94% 0 mm 0 W/m2
04:39 11.7 °C 11.3 °C 1022.9 hPa Calm     94% 0 mm 0 W/m2
04:44 11.7 °C 11.3 °C 1022.9 hPa Calm     94% 0 mm 0 W/m2
04:49 11.6 °C 11.2 °C 1022.9 hPa WSW 0.3 km/h 1.6 km/h 94% 0 mm 0 W/m2
04:54 11.6 °C 11.2 °C 1022.9 hPa Calm   1.6 km/h 94% 0 mm 0 W/m2
04:59 11.6 °C 11.2 °C 1022.9 hPa Calm     94% 0 mm 0 W/m2
05:04 11.6 °C 11.2 °C 1023.2 hPa Calm     94% 0 mm 0 W/m2
05:08 11.6 °C 11.2 °C 1023.2 hPa Calm     94% 0 mm 0 W/m2
05:14 11.6 °C 11.2 °C 1023.2 hPa Calm     94% 0 mm 0 W/m2
05:19 11.6 °C 11.2 °C 1023.2 hPa Calm     94% 0 mm 0 W/m2
05:24 11.7 °C 11.3 °C 1023.2 hPa Calm   1.6 km/h 94.4% 0 mm 0 W/m2
05:29 11.6 °C 11.3 °C 1023.2 hPa Calm   1.6 km/h 94.6% 0 mm 0 W/m2
05:34 11.6 °C 11.3 °C 1023.2 hPa Calm     95% 0 mm 0 W/m2
05:39 11.6 °C 11.3 °C 1023.2 hPa Calm     95% 0 mm 0 W/m2
05:44 11.6 °C 11.3 °C 1023.2 hPa Calm     95% 0 mm 0 W/m2
05:49 11.6 °C 11.3 °C 1023.2 hPa Calm     95% 0 mm 0 W/m2
05:53 11.6 °C 11.3 °C 1023.2 hPa Calm     95% 0 mm 0 W/m2
05:59 11.6 °C 11.3 °C 1023.2 hPa Calm     94.8% 0 mm 0 W/m2
06:04 11.6 °C 11.3 °C 1023.2 hPa Calm     95% 0 mm 0 W/m2
06:09 11.5 °C 11.1 °C 1023.2 hPa Calm     94% 0 mm 0 W/m2
06:13 11.5 °C 11.1 °C 1023.2 hPa Calm     94% 0 mm 0 W/m2
06:19 11.4 °C 11 °C 1023.2 hPa Calm     94% 0 mm 0 W/m2
06:24 11.4 °C 11.1 °C 1023.2 hPa Calm     94% 0 mm 0 W/m2
06:29 11.4 °C 11 °C 1023.2 hPa Calm     94.2% 0 mm 0 W/m2
06:34 11.4 °C 11.1 °C 1023.2 hPa Calm     94.6% 0 mm 0 W/m2
06:39 11.4 °C 11.1 °C 1023.2 hPa Calm     95% 0 mm 0 W/m2
06:44 11.4 °C 11.1 °C 1023.2 hPa Calm     95% 0 mm 0 W/m2
06:49 11.3 °C 11 °C 1023.2 hPa Calm     95% 0 mm 0 W/m2
06:54 11.4 °C 11.1 °C 1023.2 hPa Calm     95% 0 mm 0 W/m2
06:59 11.6 °C 11.3 °C 1023.2 hPa Calm     95% 0 mm 0 W/m2
07:04 11.5 °C 11.2 °C 1023.2 hPa Calm     95% 0 mm 0 W/m2
07:09 11.8 °C 11.5 °C 1023.2 hPa Calm     95% 0 mm 0 W/m2
07:14 11.9 °C 11.7 °C 1023.2 hPa Calm     95% 0 mm 0 W/m2
07:19 12.1 °C 11.8 °C 1023.6 hPa Calm   3.2 km/h 95% 0 mm 0 W/m2
07:24 12 °C 11.7 °C 1023.6 hPa Calm   1.6 km/h 95% 0 mm 0 W/m2
07:29 11.7 °C 11.4 °C 1023.6 hPa WSW 0.3 km/h 3.2 km/h 95% 0 mm 7 W/m2
07:34 11.4 °C 11 °C 1023.6 hPa WSW 0.3 km/h 3.2 km/h 94.3% 0 mm 9 W/m2
07:38 11.3 °C 11 °C 1023.6 hPa Calm   3.2 km/h 95% 0 mm 11 W/m2
07:44 11.2 °C 10.9 °C 1023.6 hPa WSW 2.1 km/h 4.8 km/h 95% 0 mm 12 W/m2
07:49 11.2 °C 10.8 °C 1023.6 hPa WSW 0.3 km/h 6.4 km/h 94.8% 0 mm 19 W/m2
07:54 11.1 °C 10.7 °C 1023.6 hPa WSW 1 km/h 3.2 km/h 94% 0 mm 18 W/m2
07:59 11.1 °C 10.7 °C 1023.6 hPa Calm   3.2 km/h 94% 0 mm 23 W/m2
08:03 11.2 °C 10.8 °C 1023.6 hPa WSW 0.8 km/h 3.2 km/h 94.5% 0 mm 25 W/m2
08:09 11.3 °C 10.9 °C 1023.6 hPa Calm     94.8% 0 mm 30 W/m2
08:14 11.3 °C 11.1 °C 1023.9 hPa Calm     95% 0 mm 32 W/m2
08:19 11.5 °C 11.2 °C 1023.9 hPa Calm     95% 0 mm 35 W/m2
08:24 11.6 °C 11.2 °C 1023.6 hPa WSW 0.3 km/h 3.2 km/h 94.4% 0 mm 51 W/m2
08:29 11.8 °C 11.5 °C 1023.9 hPa Calm   3.2 km/h 95% 0 mm 77 W/m2
08:34 11.8 °C 11.4 °C 1023.9 hPa Calm     94.2% 0 mm 76 W/m2
08:39 12 °C 11.7 °C 1023.9 hPa Calm     94.8% 0 mm 77 W/m2
08:44 12.5 °C 12.2 °C 1023.9 hPa Calm     94.8% 0 mm 74 W/m2
08:49 12.4 °C 12 °C 1023.6 hPa Calm     94% 0 mm 69 W/m2
08:54 12.6 °C 12.2 °C 1023.6 hPa Calm     94% 0 mm 76 W/m2
08:59 12.5 °C 11.8 °C 1023.6 hPa Calm     92.8% 0 mm 84 W/m2
09:04 12.3 °C 11.5 °C 1023.6 hPa Calm     92% 0 mm 88 W/m2
09:09 12.3 °C 11.5 °C 1023.6 hPa Calm     91.6% 0 mm 97 W/m2
09:14 12.4 °C 11.5 °C 1023.6 hPa WSW 0.6 km/h 3.2 km/h 91% 0 mm 109 W/m2
09:19 12.3 °C 11.3 °C 1023.6 hPa WSW 0.6 km/h 4.8 km/h 90.2% 0 mm 120 W/m2
09:24 12.3 °C 11.3 °C 1023.6 hPa WSW 0.3 km/h 4.8 km/h 90% 0 mm 137 W/m2
09:29 12.4 °C 11.4 °C 1023.6 hPa WSW 4.5 km/h 6.4 km/h 90.2% 0 mm 186 W/m2
09:34 12.4 °C 11.3 °C 1023.6 hPa WSW 3.2 km/h 8 km/h 90% 0 mm 221 W/m2
09:39 12.7 °C 11.6 °C 1023.6 hPa WSW 2.4 km/h 6.4 km/h 90% 0 mm 253 W/m2
09:44 12.8 °C 11.7 °C 1023.6 hPa WSW 3.2 km/h 8 km/h 90% 0 mm 253 W/m2
09:49 12.9 °C 11.6 °C 1023.6 hPa WSW 4.3 km/h 8 km/h 89% 0 mm 267 W/m2
09:54 13.2 °C 11.8 °C 1023.6 hPa WSW 2.9 km/h 8 km/h 88.8% 0 mm 281 W/m2
09:59 13.4 °C 11.9 °C 1023.6 hPa WSW 3.5 km/h 9.7 km/h 87.8% 0 mm 287 W/m2
10:04 13.3 °C 11.6 °C 1023.6 hPa WSW 2.7 km/h 9.7 km/h 86.2% 0 mm 232 W/m2
10:09 13.2 °C 11.4 °C 1023.6 hPa WSW 8.5 km/h 12.9 km/h 86% 0 mm 287 W/m2
10:14 13.2 °C 11.3 °C 1023.6 hPa WSW 6 km/h 12.9 km/h 86% 0 mm 269 W/m2
10:19 13.3 °C 11.4 °C 1023.6 hPa WSW 6.4 km/h 9.7 km/h 85.6% 0 mm 276 W/m2
10:24 13.3 °C 11.3 °C 1023.6 hPa WSW 4.2 km/h 11.3 km/h 85% 0 mm 265 W/m2
10:29 13.6 °C 11.7 °C 1023.6 hPa WSW 2.7 km/h 8 km/h 85.4% 0 mm 285 W/m2
10:34 14 °C 11.9 °C 1023.6 hPa WSW 3.4 km/h 6.4 km/h 84.6% 0 mm 330 W/m2
10:39 14.2 °C 12.1 °C 1023.6 hPa WSW 2.7 km/h 9.7 km/h 84% 0 mm 385 W/m2
10:44 14.4 °C 12 °C 1023.6 hPa WSW 4.7 km/h 11.3 km/h 82.6% 0 mm 385 W/m2
10:49 14.1 °C 11.7 °C 1023.6 hPa WSW 5.6 km/h 14.5 km/h 82.3% 0 mm 348 W/m2
10:54 14.1 °C 11.6 °C 1023.6 hPa WSW 6.3 km/h 11.3 km/h 82% 0 mm 353 W/m2
10:59 13.9 °C 11.4 °C 1023.6 hPa WSW 3.9 km/h 9.7 km/h 81.8% 0 mm 315 W/m2
11:04 13.9 °C 11.2 °C 1023.2 hPa WSW 7.1 km/h 11.3 km/h 81% 0 mm 315 W/m2
11:09 14.2 °C 11.4 °C 1023.2 hPa WSW 4.8 km/h 11.3 km/h 80.6% 0 mm 323 W/m2
11:14 14.4 °C 11.3 °C 1023.2 hPa WSW 5.1 km/h 9.7 km/h 79.4% 0 mm 274 W/m2
11:19 14.1 °C 11.1 °C 1023.2 hPa WSW 7.4 km/h 12.9 km/h 79.2% 0 mm 144 W/m2
11:24 13.9 °C 11.1 °C 1023.2 hPa WSW 4.7 km/h 12.9 km/h 80.4% 0 mm 264 W/m2
11:29 14.3 °C 11.4 °C 1023.2 hPa WSW 6.6 km/h 12.9 km/h 80% 0 mm 221 W/m2
11:32 14.3 °C 11.2 °C 1023.2 hPa WSW 7.9 km/h 14.5 km/h 79% 0 mm 459 W/m2
11:39 14.3 °C 10.8 °C 1023.2 hPa WSW 10.9 km/h 17.7 km/h 76.8% 0 mm 410 W/m2
11:44 14.4 °C 10.7 °C 1023.2 hPa WSW 6.6 km/h 14.5 km/h 76% 0 mm 281 W/m2
11:49 14.3 °C 10.7 °C 1023.2 hPa WSW 8.7 km/h 14.5 km/h 76% 0 mm 297 W/m2
11:54 14.2 °C 10.5 °C 1023.2 hPa SW 8.4 km/h 19.3 km/h 76% 0 mm 236 W/m2
11:59 14.1 °C 10.5 °C 1022.9 hPa SW 5.8 km/h 11.3 km/h 76.6% 0 mm 207 W/m2
12:04 14.1 °C 10.6 °C 1022.9 hPa SW 4 km/h 11.3 km/h 77% 0 mm 225 W/m2
12:09 14.1 °C 10.6 °C 1022.9 hPa SW 4.7 km/h 11.3 km/h 77% 0 mm 183 W/m2
12:14 13.9 °C 10.4 °C 1022.9 hPa SW 10.1 km/h 17.7 km/h 77% 0 mm 169 W/m2
12:19 13.9 °C 10.4 °C 1022.9 hPa SW 8.2 km/h 14.5 km/h 77.2% 0 mm 169 W/m2
12:24 13.9 °C 10.6 °C 1022.9 hPa SW 8.9 km/h 16.1 km/h 78% 0 mm 162 W/m2
12:29 13.8 °C 10.7 °C 1022.6 hPa SSW 10.3 km/h 16.1 km/h 78.8% 0 mm 151 W/m2
12:34 13.7 °C 10.6 °C 1022.6 hPa SSW 9.3 km/h 16.1 km/h 79% 0 mm 121 W/m2
12:39 13.7 °C 10.8 °C 1022.6 hPa SSW 4.8 km/h 16.1 km/h 80% 0 mm 100 W/m2
12:44 13.7 °C 10.7 °C 1022.6 hPa SSW 9.3 km/h 12.9 km/h 80% 0 mm 139 W/m2
12:49 13.7 °C 10.8 °C 1022.6 hPa SSW 4 km/h 9.7 km/h 80.4% 0 mm 134 W/m2
12:54 13.6 °C 10.8 °C 1022.6 hPa SSW 7.4 km/h 12.9 km/h 80.6% 0 mm 127 W/m2
12:59 13.6 °C 10.8 °C 1022.6 hPa SSW 6.6 km/h 11.3 km/h 80.8% 0 mm 123 W/m2
13:04 13.6 °C 10.7 °C 1022.6 hPa SSW 4.3 km/h 12.9 km/h 80% 0 mm 120 W/m2
13:09 13.6 °C 10.7 °C 1022.2 hPa SSW 6.1 km/h 12.9 km/h 80% 0 mm 113 W/m2
13:14 13.6 °C 10.5 °C 1022.2 hPa SSW 6 km/h 11.3 km/h 79% 0 mm 107 W/m2
13:19 13.6 °C 10.5 °C 1022.2 hPa SSW 4.2 km/h 11.3 km/h 79% 0 mm 113 W/m2
13:24 13.7 °C 10.6 °C 1022.2 hPa SSW 4 km/h 11.3 km/h 79% 0 mm 146 W/m2
13:29 13.7 °C 10.5 °C 1022.2 hPa SSW 6.6 km/h 11.3 km/h 78.6% 0 mm 114 W/m2
13:34 13.6 °C 10.3 °C 1022.2 hPa SW 7.7 km/h 17.7 km/h 78% 0 mm 95 W/m2
13:39 13.5 °C 10.2 °C 1022.2 hPa SSW 6 km/h 12.9 km/h 78% 0 mm 88 W/m2
13:44 13.6 °C 10.3 °C 1022.2 hPa SSW 5.8 km/h 12.9 km/h 78% 0 mm 70 W/m2
13:49 13.5 °C 10.2 °C 1022.2 hPa SW 9.7 km/h 17.7 km/h 77.8% 0 mm 69 W/m2
13:54 13.4 °C 9.9 °C 1022.2 hPa SW 5 km/h 16.1 km/h 77% 0 mm 69 W/m2
13:59 13.4 °C 9.9 °C 1022.2 hPa SW 5.1 km/h 9.7 km/h 77.2% 0 mm 54 W/m2
14:04 13.4 °C 10.1 °C 1022.2 hPa SW 7.6 km/h 14.5 km/h 77.8% 0 mm 47 W/m2
14:08 13.3 °C 9.9 °C 1022.2 hPa SW 6 km/h 16.1 km/h 77.8% 0 mm 40 W/m2
14:14 13.2 °C 9.9 °C 1021.9 hPa SW 8.5 km/h 16.1 km/h 78% 0 mm 39 W/m2
14:19 13.2 °C 9.8 °C 1021.9 hPa SW 6.8 km/h 12.9 km/h 78% 0 mm 37 W/m2
14:24 13.1 °C 9.8 °C 1021.9 hPa SW 5.1 km/h 12.9 km/h 78% 0 mm 30 W/m2
14:29 13.1 °C 9.9 °C 1021.9 hPa SW 3.5 km/h 11.3 km/h 78.5% 0 mm 26 W/m2
14:34 13.1 °C 9.9 °C 1021.9 hPa SW 7.9 km/h 12.9 km/h 79% 0 mm 25 W/m2
14:39 12.9 °C 9.8 °C 1021.9 hPa SW 4.3 km/h 9.7 km/h 79% 0 mm 25 W/m2
14:44 12.9 °C 9.8 °C 1021.9 hPa SW 5 km/h 12.9 km/h 79% 0 mm 26 W/m2
14:49 12.9 °C 9.8 °C 1021.6 hPa SW 3.4 km/h 11.3 km/h 79% 0 mm 28 W/m2
14:54 12.9 °C 9.9 °C 1021.6 hPa SW 3.1 km/h 11.3 km/h 79.8% 0 mm 25 W/m2
14:59 12.9 °C 9.8 °C 1021.6 hPa SW 3.7 km/h 11.3 km/h 79% 0 mm 23 W/m2
15:04 12.9 °C 9.9 °C 1021.6 hPa SW 2.7 km/h 6.4 km/h 79.8% 0 mm 21 W/m2
15:09 12.8 °C 9.9 °C 1021.6 hPa SW 2.4 km/h 4.8 km/h 80% 0 mm 21 W/m2
15:14 12.8 °C 9.9 °C 1021.6 hPa SW 5.1 km/h 9.7 km/h 80% 0 mm 18 W/m2
15:19 12.8 °C 9.9 °C 1021.6 hPa SW 4.8 km/h 12.9 km/h 80% 0 mm 19 W/m2
15:24 12.7 °C 9.8 °C 1021.6 hPa SW 5.6 km/h 12.9 km/h 80% 0 mm 16 W/m2
15:29 12.7 °C 9.9 °C 1021.2 hPa SW 4.8 km/h 12.9 km/h 80.6% 0 mm 16 W/m2
15:34 12.7 °C 10 °C 1021.2 hPa SW 5.5 km/h 9.7 km/h 81% 0 mm 12 W/m2
15:39 12.6 °C 9.9 °C 1021.2 hPa SW 3.1 km/h 9.7 km/h 81% 0 mm 9 W/m2
15:44 12.6 °C 9.9 °C 1021.2 hPa SW 4.2 km/h 8 km/h 81% 0 mm 7 W/m2
15:49 12.6 °C 9.9 °C 1021.2 hPa SW 7.1 km/h 14.5 km/h 81.2% 0 mm 5 W/m2
15:54 12.4 °C 9.9 °C 1021.2 hPa SSW 7.1 km/h 16.1 km/h 82% 0 mm 7 W/m2
15:59 12.4 °C 9.9 °C 1021.2 hPa SSW 8.5 km/h 16.1 km/h 82% 0 mm 7 W/m2
16:04 12.3 °C 9.9 °C 1021.2 hPa SSW 4.5 km/h 11.3 km/h 82.8% 0 mm 5 W/m2
16:09 12.3 °C 10 °C 1021.2 hPa SSW 6 km/h 9.7 km/h 83% 0 mm 5 W/m2
16:14 12.3 °C 10 °C 1020.9 hPa SSW 8.4 km/h 11.3 km/h 83% 0 mm 5 W/m2
16:19 12.3 °C 10 °C 1020.9 hPa SSW 5.1 km/h 9.7 km/h 83% 0 mm 0 W/m2
16:24 12.2 °C 9.9 °C 1021.2 hPa SSW 4.3 km/h 11.3 km/h 83% 0 mm 0 W/m2
16:29 12.2 °C 9.9 °C 1021.2 hPa SSW 5.8 km/h 11.3 km/h 83% 0 mm 0 W/m2
16:34 12.2 °C 9.9 °C 1021.2 hPa SSW 7.2 km/h 11.3 km/h 83% 0 mm 0 W/m2
16:39 12.2 °C 9.9 °C 1021.2 hPa SSW 6 km/h 12.9 km/h 83% 0 mm 0 W/m2
16:44 12.2 °C 9.9 °C 1021.2 hPa SSW 6.8 km/h 16.1 km/h 83% 0 mm 0 W/m2
16:49 12.2 °C 9.9 °C 1021.2 hPa SSW 6 km/h 11.3 km/h 83% 0 mm 0 W/m2
16:54 12.2 °C 9.9 °C 1021.2 hPa SSW 7.4 km/h 14.5 km/h 83% 0 mm 0 W/m2
16:59 12.2 °C 9.8 °C 1021.2 hPa SSW 5.3 km/h 12.9 km/h 83% 0 mm 0 W/m2
17:04 12.1 °C 9.8 °C 1021.2 hPa SSW 6.6 km/h 14.5 km/h 83% 0 mm 0 W/m2
17:09 12.1 °C 9.8 °C 1021.2 hPa SSW 5.6 km/h 8 km/h 83% 0 mm 0 W/m2
17:13 12.1 °C 9.8 °C 1021.2 hPa SSW 1.9 km/h 6.4 km/h 83% 0 mm 0 W/m2
17:19 12.1 °C 9.9 °C 1021.2 hPa SSW 6 km/h 11.3 km/h 84% 0 mm 0 W/m2
17:24 11.9 °C 9.8 °C 1021.2 hPa SSW 4 km/h 9.7 km/h 84% 0 mm 0 W/m2
17:29 11.9 °C 9.8 °C 1021.2 hPa SSW 5.8 km/h 9.7 km/h 84% 0 mm 0 W/m2
17:34 11.8 °C 9.7 °C 1021.2 hPa SSW 1.9 km/h 8 km/h 84% 0 mm 0 W/m2
17:39 11.8 °C 9.7 °C 1021.2 hPa SSW 3.5 km/h 8 km/h 84% 0 mm 0 W/m2
17:44 11.7 °C 9.7 °C 1021.2 hPa SSW 2.7 km/h 4.8 km/h 84.4% 0 mm 0 W/m2
17:49 11.6 °C 9.7 °C 1021.2 hPa SSW 4.3 km/h 8 km/h 85% 0 mm 0 W/m2
17:54 11.4 °C 9.6 °C 1021.2 hPa SSW 3.5 km/h 6.4 km/h 85% 0 mm 0 W/m2
17:59 11.4 °C 9.5 °C 1021.2 hPa SSW 2.6 km/h 6.4 km/h 85% 0 mm 0 W/m2
18:04 11.3 °C 9.5 °C 1021.2 hPa SSW 0.8 km/h 6.4 km/h 85.6% 0 mm 0 W/m2
18:08 11.2 °C 9.4 °C 1021.2 hPa SSW 2.7 km/h 6.4 km/h 86% 0 mm 0 W/m2
18:14 11.2 °C 9.3 °C 1021.2 hPa SSW 2.1 km/h 8 km/h 86% 0 mm 0 W/m2
18:19 11 °C 9.2 °C 1020.9 hPa SSW 3.2 km/h 8 km/h 86% 0 mm 0 W/m2
18:24 10.9 °C 9.1 °C 1020.9 hPa SSW 3.7 km/h 8 km/h 86% 0 mm 0 W/m2
18:29 10.8 °C 9 °C 1020.9 hPa SSW 3.4 km/h 8 km/h 86% 0 mm 0 W/m2
18:34 10.8 °C 9.1 °C 1020.5 hPa SSW 1.9 km/h 4.8 km/h 86.4% 0 mm 0 W/m2
18:39 10.7 °C 9.1 °C 1020.5 hPa SSW 2.1 km/h 6.4 km/h 87% 0 mm 0 W/m2
18:44 10.6 °C 9 °C 1020.5 hPa SSW 1.1 km/h 6.4 km/h 87% 0 mm 0 W/m2
18:49 10.5 °C 8.9 °C 1020.5 hPa SSW 4.8 km/h 8 km/h 87% 0 mm 0 W/m2
18:54 10.4 °C 8.9 °C 1020.5 hPa SSW 3.5 km/h 6.4 km/h 87.8% 0 mm 0 W/m2
18:59 10.3 °C 8.9 °C 1020.2 hPa SSW 4.7 km/h 9.7 km/h 88% 0 mm 0 W/m2
19:04 10.3 °C 8.9 °C 1020.2 hPa SSW 2.4 km/h 6.4 km/h 88% 0 mm 0 W/m2
19:09 10.2 °C 8.8 °C 1020.2 hPa SSW 3.4 km/h 8 km/h 88% 0 mm 0 W/m2
19:14 10.2 °C 8.8 °C 1020.2 hPa SSW 3.7 km/h 8 km/h 88% 0 mm 0 W/m2
19:19 10.1 °C 8.8 °C 1020.2 hPa SSW 3.7 km/h 12.9 km/h 88.8% 0 mm 0 W/m2
19:24 10.1 °C 8.9 °C 1020.2 hPa SSW 8.2 km/h 12.9 km/h 89% 0 mm 0 W/m2
19:29 10.1 °C 8.9 °C 1019.9 hPa SSW 2.7 km/h 12.9 km/h 89% 0 mm 0 W/m2
19:34 10.1 °C 8.9 °C 1020.2 hPa SSW 5.3 km/h 14.5 km/h 89% 0 mm 0 W/m2
19:39 10.1 °C 8.9 °C 1020.2 hPa SSW 6 km/h 9.7 km/h 89% 0 mm 0 W/m2
19:44 10.1 °C 8.9 °C 1020.2 hPa SSW 5 km/h 9.7 km/h 89% 0 mm 0 W/m2
19:49 10.1 °C 8.8 °C 1020.2 hPa SSW 2.1 km/h 8 km/h 89% 0 mm 0 W/m2
19:54 10.2 °C 8.9 °C 1020.2 hPa SSW 4.5 km/h 8 km/h 89% 0 mm 0 W/m2
19:59 10 °C 8.8 °C 1019.9 hPa SSW 5.1 km/h 11.3 km/h 89% 0 mm 0 W/m2
20:04 9.8 °C 8.6 °C 1019.9 hPa SSW 4.7 km/h 8 km/h 89% 0 mm 0 W/m2
20:09 9.8 °C 8.6 °C 1019.9 hPa SSW 5.8 km/h 11.3 km/h 89% 0 mm 0 W/m2
20:14 9.7 °C 8.5 °C 1019.9 hPa SSW 4 km/h 9.7 km/h 89% 0 mm 0 W/m2
20:19 9.7 °C 8.5 °C 1019.5 hPa SSW 4 km/h 9.7 km/h 89% 0 mm 0 W/m2
20:24 9.7 °C 8.5 °C 1019.5 hPa SSW 7.2 km/h 14.5 km/h 89% 0 mm 0 W/m2
20:29 9.7 °C 8.5 °C 1019.5 hPa SSW 5.3 km/h 11.3 km/h 89% 0 mm 0 W/m2
20:34 9.8 °C 8.6 °C 1019.5 hPa SSW 6.3 km/h 14.5 km/h 89% 0 mm 0 W/m2
20:39 9.8 °C 8.5 °C 1019.5 hPa SSW 6.3 km/h 14.5 km/h 88.4% 0 mm 0 W/m2
20:44 9.8 °C 8.4 °C 1019.5 hPa SSW 4.7 km/h 11.3 km/h 88% 0 mm 0 W/m2
20:49 9.7 °C 8.3 °C 1019.5 hPa SSW 3.7 km/h 8 km/h 88% 0 mm 0 W/m2
20:54 9.7 °C 8.3 °C 1019.5 hPa SSW 2.9 km/h 6.4 km/h 88% 0 mm 0 W/m2
20:59 9.7 °C 8.3 °C 1019.9 hPa SSW 4.5 km/h 9.7 km/h 88% 0 mm 0 W/m2
21:04 9.7 °C 8.3 °C 1019.5 hPa SSW 4 km/h 6.4 km/h 88% 0 mm 0 W/m2
21:09 9.7 °C 8.3 °C 1019.5 hPa SSW 3.7 km/h 11.3 km/h 88% 0 mm 0 W/m2
21:13 9.7 °C 8.3 °C 1019.5 hPa SSW 3.1 km/h 6.4 km/h 88% 0 mm 0 W/m2
21:19 9.7 °C 8.2 °C 1019.9 hPa SSW 1.3 km/h 3.2 km/h 88% 0 mm 0 W/m2
21:24 9.6 °C 8.2 °C 1019.9 hPa SSW 1.3 km/h 3.2 km/h 88% 0 mm 0 W/m2
21:29 9.6 °C 8.2 °C 1019.9 hPa SSW 0.6 km/h 3.2 km/h 88% 0 mm 0 W/m2
21:34 9.6 °C 8.2 °C 1019.9 hPa SSW 2.1 km/h 3.2 km/h 88% 0 mm 0 W/m2
21:39 9.6 °C 8.2 °C 1019.9 hPa SSW 0.3 km/h 3.2 km/h 88% 0 mm 0 W/m2
21:44 9.6 °C 8.2 °C 1019.9 hPa SSW 0.8 km/h 3.2 km/h 88% 0 mm 0 W/m2
21:49 9.4 °C 8.1 °C 1019.9 hPa SSW 1.9 km/h 3.2 km/h 88% 0 mm 0 W/m2
21:54 9.4 °C 8.1 °C 1019.9 hPa SSW 1.3 km/h 3.2 km/h 88.4% 0 mm 0 W/m2
21:58 9.4 °C 8.2 °C 1019.5 hPa SSW 2.1 km/h 3.2 km/h 89% 0 mm 0 W/m2
22:04 9.4 °C 8.2 °C 1019.5 hPa Calm     89% 0 mm 0 W/m2
22:09 9.4 °C 8.2 °C 1019.5 hPa SSW 0.3 km/h 1.6 km/h 89% 0 mm 0 W/m2
22:14 9.3 °C 8.2 °C 1019.5 hPa SSW 0.6 km/h 3.2 km/h 89% 0 mm 0 W/m2
22:19 9.4 °C 8.2 °C 1019.2 hPa SSW 1.3 km/h 3.2 km/h 89% 0 mm 0 W/m2
22:24 9.4 °C 8.2 °C 1019.2 hPa SSW 2.4 km/h 6.4 km/h 89% 0 mm 0 W/m2
22:29 9.4 °C 8.2 °C 1019.2 hPa SSW 3.2 km/h 6.4 km/h 89% 0 mm 0 W/m2
22:33 9.4 °C 8.2 °C 1019.2 hPa SSW 0.8 km/h 4.8 km/h 89% 0 mm 0 W/m2
22:39 9.4 °C 8.2 °C 1018.8 hPa SSW 3.2 km/h 9.7 km/h 89% 0 mm 0 W/m2
22:44 9.4 °C 8.2 °C 1018.8 hPa SSW 3.4 km/h 6.4 km/h 89% 0 mm 0 W/m2
22:49 9.3 °C 8.2 °C 1018.8 hPa SSW 3.9 km/h 4.8 km/h 89% 0 mm 0 W/m2
22:54 9.3 °C 8.1 °C 1018.8 hPa SSW 3.2 km/h 4.8 km/h 89% 0 mm 0 W/m2
22:59 9.2 °C 8 °C 1018.5 hPa SSW 3.9 km/h 6.4 km/h 89% 0 mm 0 W/m2
23:04 9.2 °C 7.9 °C 1018.5 hPa SSW 3.5 km/h 8 km/h 89% 0 mm 0 W/m2
23:09 9.1 °C 7.9 °C 1018.5 hPa SSW 4.7 km/h 8 km/h 89% 0 mm 0 W/m2
23:14 9.1 °C 7.8 °C 1018.5 hPa SSW 2.7 km/h 6.4 km/h 89% 0 mm 0 W/m2
23:19 8.9 °C 7.7 °C 1018.5 hPa SSW 2.3 km/h 6.4 km/h 89% 0 mm 0 W/m2
23:24 8.9 °C 7.7 °C 1018.2 hPa SSW 3.2 km/h 8 km/h 89% 0 mm 0 W/m2
23:29 8.9 °C 7.7 °C 1018.2 hPa SSW 2.9 km/h 8 km/h 89% 0 mm 0 W/m2
23:34 8.8 °C 7.6 °C 1018.2 hPa SSW 3.4 km/h 4.8 km/h 89% 0 mm 0 W/m2
23:39 8.7 °C 7.5 °C 1018.2 hPa SSW 3.2 km/h 4.8 km/h 89% 0 mm 0 W/m2
23:44 8.6 °C 7.4 °C 1017.8 hPa SSW 3.9 km/h 9.7 km/h 89.2% 0 mm 0 W/m2
23:49 8.6 °C 7.5 °C 1017.8 hPa SSW 6.6 km/h 9.7 km/h 89.8% 0 mm 0 W/m2
23:54 8.6 °C 7.5 °C 1017.5 hPa SSW 5.3 km/h 8 km/h 90% 0 mm 0 W/m2
23:59 8.6 °C 7.5 °C 1017.5 hPa SSW 4.5 km/h 8 km/h 90% 0 mm 0 W/m2
Bath Spa Weather
Compliments of Weather Underground - 2 mb